sensor_id;sensor_type;location;lat;lon;timestamp;P1;durP1;ratioP1;P2;durP2;ratioP2
61015;SDS011;46902;52.920;6.536;2022-08-04T00:05:02;10.88;;;2.42;;
61015;SDS011;46902;52.920;6.536;2022-08-04T00:07:51;7.00;;;2.23;;
61015;SDS011;46902;52.920;6.536;2022-08-04T00:10:24;10.73;;;2.50;;
61015;SDS011;46902;52.920;6.536;2022-08-04T00:12:52;8.35;;;2.38;;
61015;SDS011;46902;52.920;6.536;2022-08-04T00:15:20;10.93;;;3.10;;
61015;SDS011;46902;52.920;6.536;2022-08-04T00:17:55;10.55;;;3.20;;
61015;SDS011;46902;52.920;6.536;2022-08-04T00:20:32;9.60;;;2.83;;
61015;SDS011;46902;52.920;6.536;2022-08-04T00:22:59;9.65;;;2.90;;
61015;SDS011;46902;52.920;6.536;2022-08-04T00:25:25;8.57;;;2.72;;
61015;SDS011;46902;52.920;6.536;2022-08-04T00:27:52;11.18;;;3.22;;
61015;SDS011;46902;52.920;6.536;2022-08-04T00:30:19;9.85;;;3.03;;
61015;SDS011;46902;52.920;6.536;2022-08-04T00:32:45;11.68;;;3.15;;
61015;SDS011;46902;52.920;6.536;2022-08-04T00:35:14;9.93;;;3.00;;
61015;SDS011;46902;52.920;6.536;2022-08-04T00:37:42;11.98;;;2.85;;
61015;SDS011;46902;52.920;6.536;2022-08-04T00:48:15;13.80;;;3.00;;
61015;SDS011;46902;52.920;6.536;2022-08-04T00:51:09;11.40;;;2.88;;
61015;SDS011;46902;52.920;6.536;2022-08-04T00:53:49;12.38;;;3.88;;
61015;SDS011;46902;52.920;6.536;2022-08-04T01:09:02;9.80;;;3.20;;
61015;SDS011;46902;52.920;6.536;2022-08-04T01:14:30;10.30;;;3.35;;
61015;SDS011;46902;52.920;6.536;2022-08-04T01:17:19;10.13;;;3.38;;
61015;SDS011;46902;52.920;6.536;2022-08-04T01:28:04;12.50;;;3.20;;
61015;SDS011;46902;52.920;6.536;2022-08-04T01:30:48;9.55;;;3.85;;
61015;SDS011;46902;52.920;6.536;2022-08-04T01:33:16;7.97;;;3.80;;
61015;SDS011;46902;52.920;6.536;2022-08-04T01:40:53;13.23;;;4.18;;
61015;SDS011;46902;52.920;6.536;2022-08-04T01:43:21;9.05;;;3.92;;
61015;SDS011;46902;52.920;6.536;2022-08-04T01:45:49;9.55;;;3.85;;
61015;SDS011;46902;52.920;6.536;2022-08-04T01:48:16;14.05;;;3.95;;
61015;SDS011;46902;52.920;6.536;2022-08-04T01:50:48;13.05;;;4.22;;
61015;SDS011;46902;52.920;6.536;2022-08-04T01:53:17;12.93;;;3.85;;
61015;SDS011;46902;52.920;6.536;2022-08-04T01:55:45;11.95;;;4.10;;
61015;SDS011;46902;52.920;6.536;2022-08-04T01:58:14;8.52;;;3.83;;
61015;SDS011;46902;52.920;6.536;2022-08-04T02:00:44;13.88;;;5.25;;
61015;SDS011;46902;52.920;6.536;2022-08-04T02:03:20;13.35;;;4.10;;
61015;SDS011;46902;52.920;6.536;2022-08-04T02:05:46;10.75;;;4.57;;
61015;SDS011;46902;52.920;6.536;2022-08-04T02:11:03;12.60;;;4.28;;
61015;SDS011;46902;52.920;6.536;2022-08-04T02:21:41;10.77;;;3.70;;
61015;SDS011;46902;52.920;6.536;2022-08-04T02:24:13;8.80;;;3.50;;
61015;SDS011;46902;52.920;6.536;2022-08-04T02:26:41;8.90;;;3.75;;
61015;SDS011;46902;52.920;6.536;2022-08-04T02:29:16;10.05;;;3.60;;
61015;SDS011;46902;52.920;6.536;2022-08-04T02:32:04;9.20;;;3.95;;
61015;SDS011;46902;52.920;6.536;2022-08-04T02:34:38;8.38;;;3.75;;
61015;SDS011;46902;52.920;6.536;2022-08-04T02:37:08;11.13;;;3.80;;
61015;SDS011;46902;52.920;6.536;2022-08-04T02:39:35;9.77;;;3.60;;
61015;SDS011;46902;52.920;6.536;2022-08-04T02:42:02;9.57;;;3.80;;
61015;SDS011;46902;52.920;6.536;2022-08-04T02:44:30;10.55;;;4.38;;
61015;SDS011;46902;52.920;6.536;2022-08-04T02:46:57;8.77;;;3.70;;
61015;SDS011;46902;52.920;6.536;2022-08-04T02:49:25;8.48;;;3.85;;
61015;SDS011;46902;52.920;6.536;2022-08-04T02:51:52;8.48;;;3.75;;
61015;SDS011;46902;52.920;6.536;2022-08-04T02:54:22;8.43;;;3.65;;
61015;SDS011;46902;52.920;6.536;2022-08-04T02:56:59;8.00;;;3.60;;
61015;SDS011;46902;52.920;6.536;2022-08-04T02:59:26;11.30;;;3.35;;
61015;SDS011;46902;52.920;6.536;2022-08-04T03:01:54;9.52;;;3.80;;
61015;SDS011;46902;52.920;6.536;2022-08-04T03:13:17;13.98;;;3.63;;
61015;SDS011;46902;52.920;6.536;2022-08-04T03:15:45;8.80;;;3.40;;
61015;SDS011;46902;52.920;6.536;2022-08-04T03:18:28;9.48;;;4.00;;
61015;SDS011;46902;52.920;6.536;2022-08-04T03:21:21;13.65;;;3.92;;
61015;SDS011;46902;52.920;6.536;2022-08-04T03:41:26;9.48;;;4.28;;
61015;SDS011;46902;52.920;6.536;2022-08-04T03:55:45;8.10;;;3.95;;
61015;SDS011;46902;52.920;6.536;2022-08-04T04:10:15;6.38;;;3.75;;
61015;SDS011;46902;52.920;6.536;2022-08-04T04:16:06;13.85;;;4.18;;
61015;SDS011;46902;52.920;6.536;2022-08-04T04:18:43;10.23;;;4.55;;
61015;SDS011;46902;52.920;6.536;2022-08-04T04:26:56;9.35;;;4.05;;
61015;SDS011;46902;52.920;6.536;2022-08-04T04:32:21;11.68;;;4.68;;
61015;SDS011;46902;52.920;6.536;2022-08-04T04:35:03;11.48;;;4.22;;
61015;SDS011;46902;52.920;6.536;2022-08-04T04:37:55;8.90;;;4.23;;
61015;SDS011;46902;52.920;6.536;2022-08-04T04:40:30;7.97;;;3.60;;
61015;SDS011;46902;52.920;6.536;2022-08-04T04:51:47;10.02;;;4.32;;
61015;SDS011;46902;52.920;6.536;2022-08-04T04:54:29;6.70;;;4.10;;
61015;SDS011;46902;52.920;6.536;2022-08-04T04:57:04;9.50;;;4.72;;
61015;SDS011;46902;52.920;6.536;2022-08-04T04:59:46;11.13;;;4.88;;
61015;SDS011;46902;52.920;6.536;2022-08-04T05:13:24;10.95;;;6.05;;
61015;SDS011;46902;52.920;6.536;2022-08-04T05:16:08;12.07;;;5.57;;
61015;SDS011;46902;52.920;6.536;2022-08-04T05:21:38;13.50;;;5.95;;
61015;SDS011;46902;52.920;6.536;2022-08-04T05:24:11;11.80;;;6.10;;
61015;SDS011;46902;52.920;6.536;2022-08-04T05:26:47;10.93;;;5.57;;
61015;SDS011;46902;52.920;6.536;2022-08-04T05:29:35;16.50;;;5.82;;
61015;SDS011;46902;52.920;6.536;2022-08-04T05:32:07;10.77;;;6.05;;
61015;SDS011;46902;52.920;6.536;2022-08-04T05:34:41;14.55;;;5.72;;
61015;SDS011;46902;52.920;6.536;2022-08-04T05:37:19;10.00;;;6.15;;
61015;SDS011;46902;52.920;6.536;2022-08-04T05:40:06;16.60;;;5.32;;
61015;SDS011;46902;52.920;6.536;2022-08-04T05:42:36;8.80;;;5.55;;
61015;SDS011;46902;52.920;6.536;2022-08-04T05:45:03;13.60;;;6.10;;
61015;SDS011;46902;52.920;6.536;2022-08-04T05:47:32;8.95;;;5.63;;
61015;SDS011;46902;52.920;6.536;2022-08-04T05:49:59;13.27;;;6.35;;
61015;SDS011;46902;52.920;6.536;2022-08-04T05:52:26;14.48;;;6.43;;
61015;SDS011;46902;52.920;6.536;2022-08-04T05:54:53;12.52;;;6.50;;
61015;SDS011;46902;52.920;6.536;2022-08-04T05:57:20;12.27;;;6.72;;
61015;SDS011;46902;52.920;6.536;2022-08-04T05:59:46;11.80;;;6.60;;
61015;SDS011;46902;52.920;6.536;2022-08-04T06:02:16;14.57;;;7.10;;
61015;SDS011;46902;52.920;6.536;2022-08-04T06:04:44;11.73;;;6.82;;
61015;SDS011;46902;52.920;6.536;2022-08-04T06:07:13;12.25;;;6.38;;
61015;SDS011;46902;52.920;6.536;2022-08-04T06:09:40;14.55;;;7.18;;
61015;SDS011;46902;52.920;6.536;2022-08-04T06:12:06;17.52;;;6.95;;
61015;SDS011;46902;52.920;6.536;2022-08-04T06:14:38;12.68;;;7.38;;
61015;SDS011;46902;52.920;6.536;2022-08-04T06:17:07;13.38;;;7.18;;
61015;SDS011;46902;52.920;6.536;2022-08-04T06:19:35;15.57;;;7.15;;
61015;SDS011;46902;52.920;6.536;2022-08-04T06:22:04;12.18;;;6.55;;
61015;SDS011;46902;52.920;6.536;2022-08-04T06:24:31;12.77;;;6.90;;
61015;SDS011;46902;52.920;6.536;2022-08-04T06:27:01;11.95;;;6.43;;
61015;SDS011;46902;52.920;6.536;2022-08-04T06:29:28;14.43;;;6.28;;
61015;SDS011;46902;52.920;6.536;2022-08-04T06:32:05;9.77;;;7.03;;
61015;SDS011;46902;52.920;6.536;2022-08-04T06:34:38;12.35;;;6.10;;
61015;SDS011;46902;52.920;6.536;2022-08-04T06:37:05;15.60;;;6.72;;
61015;SDS011;46902;52.920;6.536;2022-08-04T06:39:32;15.30;;;5.70;;
61015;SDS011;46902;52.920;6.536;2022-08-04T06:41:58;12.40;;;5.32;;
61015;SDS011;46902;52.920;6.536;2022-08-04T06:44:25;7.97;;;5.15;;
61015;SDS011;46902;52.920;6.536;2022-08-04T06:46:52;9.88;;;5.05;;
61015;SDS011;46902;52.920;6.536;2022-08-04T06:49:19;10.10;;;5.43;;
61015;SDS011;46902;52.920;6.536;2022-08-04T06:51:46;12.05;;;4.72;;
61015;SDS011;46902;52.920;6.536;2022-08-04T06:54:13;11.15;;;4.63;;
61015;SDS011;46902;52.920;6.536;2022-08-04T06:56:39;14.50;;;5.03;;
61015;SDS011;46902;52.920;6.536;2022-08-04T06:59:06;11.18;;;4.60;;
61015;SDS011;46902;52.920;6.536;2022-08-04T07:01:34;9.75;;;5.10;;
61015;SDS011;46902;52.920;6.536;2022-08-04T07:04:02;9.05;;;4.13;;
61015;SDS011;46902;52.920;6.536;2022-08-04T07:06:28;10.43;;;4.45;;
61015;SDS011;46902;52.920;6.536;2022-08-04T07:08:54;9.88;;;4.30;;
61015;SDS011;46902;52.920;6.536;2022-08-04T07:11:20;13.45;;;4.40;;
61015;SDS011;46902;52.920;6.536;2022-08-04T07:13:47;10.80;;;4.35;;
61015;SDS011;46902;52.920;6.536;2022-08-04T07:16:14;13.30;;;4.20;;
61015;SDS011;46902;52.920;6.536;2022-08-04T07:18:42;11.20;;;4.25;;
61015;SDS011;46902;52.920;6.536;2022-08-04T07:21:08;10.55;;;4.40;;
61015;SDS011;46902;52.920;6.536;2022-08-04T07:23:35;6.70;;;3.10;;
61015;SDS011;46902;52.920;6.536;2022-08-04T07:26:01;9.80;;;3.78;;
61015;SDS011;46902;52.920;6.536;2022-08-04T07:28:29;10.90;;;3.50;;
61015;SDS011;46902;52.920;6.536;2022-08-04T07:30:55;8.25;;;3.33;;
61015;SDS011;46902;52.920;6.536;2022-08-04T07:33:22;10.27;;;3.28;;
61015;SDS011;46902;52.920;6.536;2022-08-04T07:35:49;10.02;;;3.42;;
61015;SDS011;46902;52.920;6.536;2022-08-04T07:38:17;10.32;;;2.75;;
61015;SDS011;46902;52.920;6.536;2022-08-04T07:40:42;11.50;;;3.45;;
61015;SDS011;46902;52.920;6.536;2022-08-04T07:43:09;12.15;;;3.97;;
61015;SDS011;46902;52.920;6.536;2022-08-04T07:45:35;10.77;;;2.95;;
61015;SDS011;46902;52.920;6.536;2022-08-04T07:48:01;11.20;;;2.60;;
61015;SDS011;46902;52.920;6.536;2022-08-04T07:50:29;9.75;;;3.10;;
61015;SDS011;46902;52.920;6.536;2022-08-04T07:52:56;13.77;;;3.08;;
61015;SDS011;46902;52.920;6.536;2022-08-04T07:55:22;12.65;;;2.95;;
61015;SDS011;46902;52.920;6.536;2022-08-04T07:57:48;13.65;;;3.05;;
61015;SDS011;46902;52.920;6.536;2022-08-04T08:00:14;11.13;;;2.65;;
61015;SDS011;46902;52.920;6.536;2022-08-04T08:02:40;10.43;;;2.67;;
61015;SDS011;46902;52.920;6.536;2022-08-04T08:05:08;10.00;;;2.42;;
61015;SDS011;46902;52.920;6.536;2022-08-04T08:07:36;14.23;;;2.85;;
61015;SDS011;46902;52.920;6.536;2022-08-04T08:10:02;8.32;;;2.80;;
61015;SDS011;46902;52.920;6.536;2022-08-04T08:12:28;7.82;;;2.40;;
61015;SDS011;46902;52.920;6.536;2022-08-04T08:14:56;8.10;;;2.85;;
61015;SDS011;46902;52.920;6.536;2022-08-04T08:17:22;11.43;;;2.78;;
61015;SDS011;46902;52.920;6.536;2022-08-04T08:19:48;16.35;;;2.50;;
61015;SDS011;46902;52.920;6.536;2022-08-04T08:22:13;8.13;;;2.72;;
61015;SDS011;46902;52.920;6.536;2022-08-04T08:24:39;13.02;;;2.58;;
61015;SDS011;46902;52.920;6.536;2022-08-04T08:27:05;9.57;;;2.63;;
61015;SDS011;46902;52.920;6.536;2022-08-04T08:29:32;10.93;;;3.35;;
61015;SDS011;46902;52.920;6.536;2022-08-04T08:31:59;10.18;;;2.60;;
61015;SDS011;46902;52.920;6.536;2022-08-04T08:34:26;12.18;;;2.58;;
61015;SDS011;46902;52.920;6.536;2022-08-04T08:36:56;7.70;;;2.58;;
61015;SDS011;46902;52.920;6.536;2022-08-04T08:39:38;9.45;;;2.22;;
61015;SDS011;46902;52.920;6.536;2022-08-04T08:45:12;9.85;;;2.80;;
61015;SDS011;46902;52.920;6.536;2022-08-04T08:56:34;9.00;;;2.90;;
61015;SDS011;46902;52.920;6.536;2022-08-04T09:04:59;6.97;;;2.50;;
61015;SDS011;46902;52.920;6.536;2022-08-04T09:10:42;12.18;;;2.67;;
61015;SDS011;46902;52.920;6.536;2022-08-04T09:21:58;9.63;;;3.15;;
61015;SDS011;46902;52.920;6.536;2022-08-04T09:27:17;11.18;;;3.40;;
61015;SDS011;46902;52.920;6.536;2022-08-04T09:30:47;8.88;;;2.88;;
61015;SDS011;46902;52.920;6.536;2022-08-04T09:32:56;7.57;;;2.90;;
61015;SDS011;46902;52.920;6.536;2022-08-04T09:42:00;9.45;;;2.88;;
61015;SDS011;46902;52.920;6.536;2022-08-04T09:47:38;10.60;;;3.30;;
61015;SDS011;46902;52.920;6.536;2022-08-04T10:01:19;11.65;;;3.13;;
61015;SDS011;46902;52.920;6.536;2022-08-04T10:03:49;11.45;;;3.60;;
61015;SDS011;46902;52.920;6.536;2022-08-04T10:11:54;8.13;;;2.58;;
61015;SDS011;46902;52.920;6.536;2022-08-04T10:17:07;10.88;;;3.35;;
61015;SDS011;46902;52.920;6.536;2022-08-04T10:22:47;8.55;;;2.75;;
61015;SDS011;46902;52.920;6.536;2022-08-04T10:28:31;5.97;;;2.60;;
61015;SDS011;46902;52.920;6.536;2022-08-04T10:31:06;7.43;;;2.35;;
61015;SDS011;46902;52.920;6.536;2022-08-04T10:33:41;8.35;;;1.88;;
61015;SDS011;46902;52.920;6.536;2022-08-04T10:36:15;7.70;;;1.88;;
61015;SDS011;46902;52.920;6.536;2022-08-04T10:38:56;7.63;;;1.85;;
61015;SDS011;46902;52.920;6.536;2022-08-04T10:44:36;7.28;;;1.80;;
61015;SDS011;46902;52.920;6.536;2022-08-04T10:47:14;5.38;;;2.13;;
61015;SDS011;46902;52.920;6.536;2022-08-04T10:49:44;7.32;;;2.38;;
61015;SDS011;46902;52.920;6.536;2022-08-04T10:52:24;11.10;;;2.50;;
61015;SDS011;46902;52.920;6.536;2022-08-04T10:57:29;6.78;;;2.20;;
61015;SDS011;46902;52.920;6.536;2022-08-04T11:00:13;8.10;;;1.65;;
61015;SDS011;46902;52.920;6.536;2022-08-04T11:02:49;9.52;;;2.10;;
61015;SDS011;46902;52.920;6.536;2022-08-04T11:08:34;8.93;;;1.67;;
61015;SDS011;46902;52.920;6.536;2022-08-04T11:13:37;8.90;;;1.90;;
61015;SDS011;46902;52.920;6.536;2022-08-04T11:16:08;12.18;;;2.20;;
61015;SDS011;46902;52.920;6.536;2022-08-04T11:21:54;9.07;;;1.60;;
61015;SDS011;46902;52.920;6.536;2022-08-04T11:27:28;8.93;;;1.90;;
61015;SDS011;46902;52.920;6.536;2022-08-04T11:32:33;9.80;;;1.83;;
61015;SDS011;46902;52.920;6.536;2022-08-04T11:35:28;6.95;;;1.95;;
61015;SDS011;46902;52.920;6.536;2022-08-04T11:40:41;9.68;;;2.17;;
61015;SDS011;46902;52.920;6.536;2022-08-04T11:43:18;6.95;;;1.98;;
61015;SDS011;46902;52.920;6.536;2022-08-04T11:45:53;8.07;;;1.60;;
61015;SDS011;46902;52.920;6.536;2022-08-04T11:51:30;5.70;;;1.10;;
61015;SDS011;46902;52.920;6.536;2022-08-04T11:53:57;6.80;;;1.25;;
61015;SDS011;46902;52.920;6.536;2022-08-04T11:56:24;6.15;;;1.10;;
61015;SDS011;46902;52.920;6.536;2022-08-04T11:58:51;9.25;;;1.58;;
61015;SDS011;46902;52.920;6.536;2022-08-04T12:06:38;5.20;;;1.15;;
61015;SDS011;46902;52.920;6.536;2022-08-04T12:09:31;8.60;;;1.10;;
61015;SDS011;46902;52.920;6.536;2022-08-04T12:12:19;3.03;;;1.13;;
61015;SDS011;46902;52.920;6.536;2022-08-04T12:18:07;5.63;;;1.10;;
61015;SDS011;46902;52.920;6.536;2022-08-04T12:20:42;3.90;;;1.10;;
61015;SDS011;46902;52.920;6.536;2022-08-04T12:23:20;4.05;;;1.33;;
61015;SDS011;46902;52.920;6.536;2022-08-04T12:25:49;5.10;;;1.20;;
61015;SDS011;46902;52.920;6.536;2022-08-04T12:28:32;7.00;;;1.00;;
61015;SDS011;46902;52.920;6.536;2022-08-04T12:31:19;3.78;;;1.20;;
61015;SDS011;46902;52.920;6.536;2022-08-04T12:36:38;3.90;;;1.00;;
61015;SDS011;46902;52.920;6.536;2022-08-04T12:39:15;3.00;;;1.15;;
61015;SDS011;46902;52.920;6.536;2022-08-04T12:41:51;4.93;;;1.20;;
61015;SDS011;46902;52.920;6.536;2022-08-04T12:44:36;5.72;;;1.10;;
61015;SDS011;46902;52.920;6.536;2022-08-04T12:47:06;5.70;;;1.10;;
61015;SDS011;46902;52.920;6.536;2022-08-04T12:49:33;4.07;;;1.02;;
61015;SDS011;46902;52.920;6.536;2022-08-04T12:52:04;3.03;;;0.90;;
61015;SDS011;46902;52.920;6.536;2022-08-04T12:54:31;4.43;;;0.90;;
61015;SDS011;46902;52.920;6.536;2022-08-04T12:57:00;4.40;;;0.90;;
61015;SDS011;46902;52.920;6.536;2022-08-04T12:59:26;3.55;;;1.10;;
61015;SDS011;46902;52.920;6.536;2022-08-04T13:01:51;4.38;;;1.20;;
61015;SDS011;46902;52.920;6.536;2022-08-04T13:04:21;2.83;;;0.80;;
61015;SDS011;46902;52.920;6.536;2022-08-04T13:06:51;3.35;;;1.02;;
61015;SDS011;46902;52.920;6.536;2022-08-04T13:09:25;2.97;;;1.00;;
61015;SDS011;46902;52.920;6.536;2022-08-04T13:11:56;4.30;;;0.82;;
61015;SDS011;46902;52.920;6.536;2022-08-04T13:14:27;3.63;;;0.80;;
61015;SDS011;46902;52.920;6.536;2022-08-04T13:16:57;2.22;;;0.60;;
61015;SDS011;46902;52.920;6.536;2022-08-04T13:19:27;4.68;;;0.82;;
61015;SDS011;46902;52.920;6.536;2022-08-04T13:21:53;2.75;;;0.70;;
61015;SDS011;46902;52.920;6.536;2022-08-04T13:24:22;3.70;;;0.85;;
61015;SDS011;46902;52.920;6.536;2022-08-04T13:26:50;6.28;;;1.27;;
61015;SDS011;46902;52.920;6.536;2022-08-04T13:29:23;4.38;;;1.00;;
61015;SDS011;46902;52.920;6.536;2022-08-04T13:31:54;3.78;;;1.20;;
61015;SDS011;46902;52.920;6.536;2022-08-04T13:34:20;3.65;;;0.63;;
61015;SDS011;46902;52.920;6.536;2022-08-04T13:36:47;4.47;;;1.05;;
61015;SDS011;46902;52.920;6.536;2022-08-04T13:39:17;2.85;;;0.82;;
61015;SDS011;46902;52.920;6.536;2022-08-04T13:41:47;3.63;;;1.05;;
61015;SDS011;46902;52.920;6.536;2022-08-04T13:44:17;2.15;;;0.70;;
61015;SDS011;46902;52.920;6.536;2022-08-04T13:46:46;2.67;;;0.82;;
61015;SDS011;46902;52.920;6.536;2022-08-04T13:49:19;2.88;;;0.80;;
61015;SDS011;46902;52.920;6.536;2022-08-04T13:52:19;5.00;;;0.80;;
61015;SDS011;46902;52.920;6.536;2022-08-04T13:54:41;2.47;;;0.90;;
61015;SDS011;46902;52.920;6.536;2022-08-04T13:57:13;4.97;;;1.00;;
61015;SDS011;46902;52.920;6.536;2022-08-04T13:59:43;3.80;;;1.00;;
61015;SDS011;46902;52.920;6.536;2022-08-04T14:02:25;3.45;;;0.93;;
61015;SDS011;46902;52.920;6.536;2022-08-04T14:05:01;4.03;;;1.00;;
61015;SDS011;46902;52.920;6.536;2022-08-04T14:07:32;4.43;;;1.15;;
61015;SDS011;46902;52.920;6.536;2022-08-04T14:12:51;5.60;;;1.00;;
61015;SDS011;46902;52.920;6.536;2022-08-04T14:20:57;2.25;;;0.77;;
61015;SDS011;46902;52.920;6.536;2022-08-04T14:23:36;2.90;;;0.95;;
61015;SDS011;46902;52.920;6.536;2022-08-04T14:26:13;3.70;;;0.90;;
61015;SDS011;46902;52.920;6.536;2022-08-04T14:28:47;3.03;;;0.90;;
61015;SDS011;46902;52.920;6.536;2022-08-04T14:31:18;4.88;;;1.05;;
61015;SDS011;46902;52.920;6.536;2022-08-04T14:33:46;2.92;;;0.85;;
61015;SDS011;46902;52.920;6.536;2022-08-04T14:36:12;3.58;;;0.70;;
61015;SDS011;46902;52.920;6.536;2022-08-04T14:38:47;2.42;;;0.70;;
61015;SDS011;46902;52.920;6.536;2022-08-04T14:41:21;2.60;;;0.70;;
61015;SDS011;46902;52.920;6.536;2022-08-04T14:43:50;3.72;;;0.50;;
61015;SDS011;46902;52.920;6.536;2022-08-04T14:46:20;3.25;;;0.68;;
61015;SDS011;46902;52.920;6.536;2022-08-04T14:49:02;4.28;;;0.90;;
61015;SDS011;46902;52.920;6.536;2022-08-04T14:51:33;3.40;;;0.50;;
61015;SDS011;46902;52.920;6.536;2022-08-04T14:54:00;2.65;;;0.90;;
61015;SDS011;46902;52.920;6.536;2022-08-04T14:56:26;3.50;;;0.70;;
61015;SDS011;46902;52.920;6.536;2022-08-04T14:58:59;3.15;;;0.90;;
61015;SDS011;46902;52.920;6.536;2022-08-04T15:01:29;1.90;;;0.80;;
61015;SDS011;46902;52.920;6.536;2022-08-04T15:03:55;5.80;;;1.67;;
61015;SDS011;46902;52.920;6.536;2022-08-04T15:06:25;3.50;;;0.68;;
61015;SDS011;46902;52.920;6.536;2022-08-04T15:08:53;4.25;;;0.75;;
61015;SDS011;46902;52.920;6.536;2022-08-04T15:11:20;3.28;;;0.65;;
61015;SDS011;46902;52.920;6.536;2022-08-04T15:13:46;2.63;;;0.70;;
61015;SDS011;46902;52.920;6.536;2022-08-04T15:16:12;3.78;;;0.70;;
61015;SDS011;46902;52.920;6.536;2022-08-04T15:18:39;4.32;;;0.85;;
61015;SDS011;46902;52.920;6.536;2022-08-04T15:21:05;3.50;;;0.80;;
61015;SDS011;46902;52.920;6.536;2022-08-04T15:23:31;2.78;;;0.70;;
61015;SDS011;46902;52.920;6.536;2022-08-04T15:26:01;2.65;;;0.80;;
61015;SDS011;46902;52.920;6.536;2022-08-04T15:28:28;5.43;;;0.93;;
61015;SDS011;46902;52.920;6.536;2022-08-04T15:30:59;3.60;;;0.63;;
61015;SDS011;46902;52.920;6.536;2022-08-04T15:33:27;4.53;;;0.98;;
61015;SDS011;46902;52.920;6.536;2022-08-04T15:35:55;3.50;;;0.80;;
61015;SDS011;46902;52.920;6.536;2022-08-04T15:38:48;1.95;;;0.68;;
61015;SDS011;46902;52.920;6.536;2022-08-04T15:44:25;5.03;;;1.05;;
61015;SDS011;46902;52.920;6.536;2022-08-04T15:47:22;3.53;;;1.00;;
61015;SDS011;46902;52.920;6.536;2022-08-04T15:50:06;3.78;;;0.80;;
61015;SDS011;46902;52.920;6.536;2022-08-04T15:55:29;4.93;;;0.90;;
61015;SDS011;46902;52.920;6.536;2022-08-04T15:57:56;3.85;;;1.00;;
61015;SDS011;46902;52.920;6.536;2022-08-04T16:00:25;3.35;;;0.82;;
61015;SDS011;46902;52.920;6.536;2022-08-04T16:02:51;6.13;;;1.08;;
61015;SDS011;46902;52.920;6.536;2022-08-04T16:07:55;3.13;;;1.10;;
61015;SDS011;46902;52.920;6.536;2022-08-04T16:12:54;2.20;;;0.70;;
61015;SDS011;46902;52.920;6.536;2022-08-04T16:18:18;2.78;;;1.02;;
61015;SDS011;46902;52.920;6.536;2022-08-04T16:21:02;3.30;;;0.85;;
61015;SDS011;46902;52.920;6.536;2022-08-04T16:25:59;5.25;;;1.40;;
61015;SDS011;46902;52.920;6.536;2022-08-04T16:31:03;5.05;;;1.30;;
61015;SDS011;46902;52.920;6.536;2022-08-04T16:33:30;7.40;;;1.60;;
61015;SDS011;46902;52.920;6.536;2022-08-04T16:35:57;4.35;;;1.70;;
61015;SDS011;46902;52.920;6.536;2022-08-04T16:38:24;10.52;;;1.63;;
61015;SDS011;46902;52.920;6.536;2022-08-04T16:40:53;7.88;;;1.90;;
61015;SDS011;46902;52.920;6.536;2022-08-04T16:43:21;6.90;;;1.30;;
61015;SDS011;46902;52.920;6.536;2022-08-04T16:45:51;3.75;;;1.20;;
61015;SDS011;46902;52.920;6.536;2022-08-04T16:48:32;8.60;;;2.00;;
61015;SDS011;46902;52.920;6.536;2022-08-04T16:51:04;4.38;;;1.30;;
61015;SDS011;46902;52.920;6.536;2022-08-04T16:53:37;3.45;;;1.02;;
61015;SDS011;46902;52.920;6.536;2022-08-04T16:56:05;5.90;;;1.40;;
61015;SDS011;46902;52.920;6.536;2022-08-04T16:58:33;4.15;;;1.30;;
61015;SDS011;46902;52.920;6.536;2022-08-04T17:01:07;3.53;;;1.00;;
61015;SDS011;46902;52.920;6.536;2022-08-04T17:03:37;9.73;;;1.27;;
61015;SDS011;46902;52.920;6.536;2022-08-04T17:08:32;2.78;;;0.90;;
61015;SDS011;46902;52.920;6.536;2022-08-04T17:10:59;2.30;;;0.73;;
61015;SDS011;46902;52.920;6.536;2022-08-04T17:13:30;3.35;;;0.68;;
61015;SDS011;46902;52.920;6.536;2022-08-04T17:15:58;3.42;;;1.00;;
61015;SDS011;46902;52.920;6.536;2022-08-04T17:18:33;1.90;;;0.82;;
61015;SDS011;46902;52.920;6.536;2022-08-04T17:21:06;3.65;;;0.80;;
61015;SDS011;46902;52.920;6.536;2022-08-04T17:23:35;2.00;;;0.70;;
61015;SDS011;46902;52.920;6.536;2022-08-04T17:26:12;4.50;;;0.90;;
61015;SDS011;46902;52.920;6.536;2022-08-04T17:28:45;3.42;;;0.82;;
61015;SDS011;46902;52.920;6.536;2022-08-04T17:31:12;3.35;;;0.80;;
61015;SDS011;46902;52.920;6.536;2022-08-04T17:33:39;4.13;;;0.63;;
61015;SDS011;46902;52.920;6.536;2022-08-04T17:36:10;4.03;;;0.90;;
61015;SDS011;46902;52.920;6.536;2022-08-04T17:41:04;3.95;;;0.95;;
61015;SDS011;46902;52.920;6.536;2022-08-04T17:43:36;2.70;;;0.70;;
61015;SDS011;46902;52.920;6.536;2022-08-04T17:46:18;3.50;;;0.90;;
61015;SDS011;46902;52.920;6.536;2022-08-04T17:49:08;4.15;;;0.93;;
61015;SDS011;46902;52.920;6.536;2022-08-04T17:54:20;3.30;;;0.77;;
61015;SDS011;46902;52.920;6.536;2022-08-04T17:56:55;3.70;;;0.70;;
61015;SDS011;46902;52.920;6.536;2022-08-04T18:01:57;5.18;;;1.00;;
61015;SDS011;46902;52.920;6.536;2022-08-04T18:06:50;4.38;;;1.15;;
61015;SDS011;46902;52.920;6.536;2022-08-04T18:09:23;3.20;;;1.10;;
61015;SDS011;46902;52.920;6.536;2022-08-04T18:11:55;3.33;;;0.80;;
61015;SDS011;46902;52.920;6.536;2022-08-04T18:14:26;4.32;;;1.10;;
61015;SDS011;46902;52.920;6.536;2022-08-04T18:17:03;3.30;;;1.00;;
61015;SDS011;46902;52.920;6.536;2022-08-04T18:19:29;4.07;;;1.05;;
61015;SDS011;46902;52.920;6.536;2022-08-04T18:21:55;3.35;;;1.00;;
61015;SDS011;46902;52.920;6.536;2022-08-04T18:24:21;4.25;;;1.25;;
61015;SDS011;46902;52.920;6.536;2022-08-04T18:26:46;6.60;;;0.90;;
61015;SDS011;46902;52.920;6.536;2022-08-04T18:29:12;4.30;;;1.00;;
61015;SDS011;46902;52.920;6.536;2022-08-04T18:31:37;4.38;;;1.10;;
61015;SDS011;46902;52.920;6.536;2022-08-04T18:34:04;3.90;;;0.88;;
61015;SDS011;46902;52.920;6.536;2022-08-04T18:36:31;3.65;;;1.13;;
61015;SDS011;46902;52.920;6.536;2022-08-04T18:39:00;5.13;;;1.02;;
61015;SDS011;46902;52.920;6.536;2022-08-04T18:41:27;3.92;;;0.70;;
61015;SDS011;46902;52.920;6.536;2022-08-04T18:43:53;4.97;;;1.23;;
61015;SDS011;46902;52.920;6.536;2022-08-04T18:46:20;6.85;;;1.40;;
61015;SDS011;46902;52.920;6.536;2022-08-04T18:48:46;5.47;;;1.05;;
61015;SDS011;46902;52.920;6.536;2022-08-04T18:51:11;5.63;;;1.13;;
61015;SDS011;46902;52.920;6.536;2022-08-04T18:53:37;5.32;;;1.35;;
61015;SDS011;46902;52.920;6.536;2022-08-04T18:56:03;8.23;;;1.67;;
61015;SDS011;46902;52.920;6.536;2022-08-04T18:58:29;3.55;;;0.90;;
61015;SDS011;46902;52.920;6.536;2022-08-04T19:00:55;3.85;;;1.13;;
61015;SDS011;46902;52.920;6.536;2022-08-04T19:03:20;3.83;;;1.10;;
61015;SDS011;46902;52.920;6.536;2022-08-04T19:05:46;4.93;;;1.10;;
61015;SDS011;46902;52.920;6.536;2022-08-04T19:08:12;6.85;;;1.67;;
61015;SDS011;46902;52.920;6.536;2022-08-04T19:10:37;3.75;;;1.10;;
61015;SDS011;46902;52.920;6.536;2022-08-04T19:13:03;6.03;;;1.50;;
61015;SDS011;46902;52.920;6.536;2022-08-04T19:15:28;6.30;;;1.60;;
61015;SDS011;46902;52.920;6.536;2022-08-04T19:17:55;5.60;;;1.05;;
61015;SDS011;46902;52.920;6.536;2022-08-04T19:20:21;4.10;;;1.20;;
61015;SDS011;46902;52.920;6.536;2022-08-04T19:22:47;4.10;;;1.20;;
61015;SDS011;46902;52.920;6.536;2022-08-04T19:25:12;4.15;;;1.20;;
61015;SDS011;46902;52.920;6.536;2022-08-04T19:27:38;6.63;;;1.40;;
61015;SDS011;46902;52.920;6.536;2022-08-04T19:30:04;4.30;;;1.42;;
61015;SDS011;46902;52.920;6.536;2022-08-04T19:32:30;6.75;;;1.60;;
61015;SDS011;46902;52.920;6.536;2022-08-04T19:34:56;7.18;;;1.38;;
61015;SDS011;46902;52.920;6.536;2022-08-04T19:37:21;6.07;;;1.60;;
61015;SDS011;46902;52.920;6.536;2022-08-04T19:39:48;5.25;;;1.42;;
61015;SDS011;46902;52.920;6.536;2022-08-04T19:42:15;5.32;;;1.40;;
61015;SDS011;46902;52.920;6.536;2022-08-04T19:44:40;7.25;;;1.73;;
61015;SDS011;46902;52.920;6.536;2022-08-04T19:47:06;5.55;;;1.45;;